sensor_id;sensor_type;location;lat;lon;timestamp;P1;durP1;ratioP1;P2;durP2;ratioP2
10126;SDS011;13080;42.608;23.362;2024-03-02T00:01:34;27.88;;;13.52;;
10126;SDS011;13080;42.608;23.362;2024-03-02T00:04:02;26.27;;;13.88;;
10126;SDS011;13080;42.608;23.362;2024-03-02T00:06:33;28.50;;;13.27;;
10126;SDS011;13080;42.608;23.362;2024-03-02T00:09:01;31.15;;;14.75;;
10126;SDS011;13080;42.608;23.362;2024-03-02T00:11:28;29.55;;;14.80;;
10126;SDS011;13080;42.608;23.362;2024-03-02T00:13:55;30.35;;;14.82;;
10126;SDS011;13080;42.608;23.362;2024-03-02T00:16:22;28.90;;;14.20;;
10126;SDS011;13080;42.608;23.362;2024-03-02T00:18:50;30.27;;;14.68;;
10126;SDS011;13080;42.608;23.362;2024-03-02T00:21:16;31.73;;;14.73;;
10126;SDS011;13080;42.608;23.362;2024-03-02T00:23:47;36.70;;;14.82;;
10126;SDS011;13080;42.608;23.362;2024-03-02T00:26:17;25.92;;;12.93;;
10126;SDS011;13080;42.608;23.362;2024-03-02T00:28:44;31.83;;;14.50;;
10126;SDS011;13080;42.608;23.362;2024-03-02T00:31:11;34.00;;;15.50;;
10126;SDS011;13080;42.608;23.362;2024-03-02T00:33:40;33.95;;;15.27;;
10126;SDS011;13080;42.608;23.362;2024-03-02T00:36:09;34.50;;;15.35;;
10126;SDS011;13080;42.608;23.362;2024-03-02T00:38:42;32.88;;;15.77;;
10126;SDS011;13080;42.608;23.362;2024-03-02T00:41:15;36.55;;;16.30;;
10126;SDS011;13080;42.608;23.362;2024-03-02T00:43:45;29.00;;;14.77;;
10126;SDS011;13080;42.608;23.362;2024-03-02T00:46:18;27.63;;;14.90;;
10126;SDS011;13080;42.608;23.362;2024-03-02T00:48:51;29.35;;;12.98;;
10126;SDS011;13080;42.608;23.362;2024-03-02T00:51:20;30.00;;;14.70;;
10126;SDS011;13080;42.608;23.362;2024-03-02T00:53:48;29.13;;;14.88;;
10126;SDS011;13080;42.608;23.362;2024-03-02T00:56:16;26.60;;;13.88;;
10126;SDS011;13080;42.608;23.362;2024-03-02T00:58:44;27.42;;;12.75;;
10126;SDS011;13080;42.608;23.362;2024-03-02T01:01:11;29.35;;;13.70;;
10126;SDS011;13080;42.608;23.362;2024-03-02T01:03:37;21.95;;;12.00;;
10126;SDS011;13080;42.608;23.362;2024-03-02T01:06:04;23.42;;;12.07;;
10126;SDS011;13080;42.608;23.362;2024-03-02T01:08:33;22.42;;;10.77;;
10126;SDS011;13080;42.608;23.362;2024-03-02T01:11:00;19.65;;;10.18;;
10126;SDS011;13080;42.608;23.362;2024-03-02T01:13:29;20.13;;;9.38;;
10126;SDS011;13080;42.608;23.362;2024-03-02T01:15:56;19.15;;;9.80;;
10126;SDS011;13080;42.608;23.362;2024-03-02T01:18:23;19.90;;;9.60;;
10126;SDS011;13080;42.608;23.362;2024-03-02T01:20:50;21.17;;;10.32;;
10126;SDS011;13080;42.608;23.362;2024-03-02T01:23:18;20.95;;;9.77;;
10126;SDS011;13080;42.608;23.362;2024-03-02T01:25:45;20.58;;;10.60;;
10126;SDS011;13080;42.608;23.362;2024-03-02T01:28:12;20.35;;;10.60;;
10126;SDS011;13080;42.608;23.362;2024-03-02T01:30:41;20.88;;;10.20;;
10126;SDS011;13080;42.608;23.362;2024-03-02T01:33:08;19.92;;;9.75;;
10126;SDS011;13080;42.608;23.362;2024-03-02T01:35:35;17.17;;;10.18;;
10126;SDS011;13080;42.608;23.362;2024-03-02T01:38:02;25.55;;;11.45;;
10126;SDS011;13080;42.608;23.362;2024-03-02T01:40:31;22.52;;;10.60;;
10126;SDS011;13080;42.608;23.362;2024-03-02T01:42:58;21.15;;;11.45;;
10126;SDS011;13080;42.608;23.362;2024-03-02T01:45:25;21.00;;;11.10;;
10126;SDS011;13080;42.608;23.362;2024-03-02T01:47:53;22.38;;;10.85;;
10126;SDS011;13080;42.608;23.362;2024-03-02T01:50:24;22.20;;;10.73;;
10126;SDS011;13080;42.608;23.362;2024-03-02T01:52:52;23.63;;;11.43;;
10126;SDS011;13080;42.608;23.362;2024-03-02T01:55:19;23.05;;;11.52;;
10126;SDS011;13080;42.608;23.362;2024-03-02T01:57:46;23.17;;;10.95;;
10126;SDS011;13080;42.608;23.362;2024-03-02T02:00:14;25.58;;;12.85;;
10126;SDS011;13080;42.608;23.362;2024-03-02T02:02:42;24.50;;;11.55;;
10126;SDS011;13080;42.608;23.362;2024-03-02T02:05:10;24.58;;;11.70;;
10126;SDS011;13080;42.608;23.362;2024-03-02T02:07:37;23.20;;;11.00;;
10126;SDS011;13080;42.608;23.362;2024-03-02T02:10:05;23.08;;;11.98;;
10126;SDS011;13080;42.608;23.362;2024-03-02T02:12:32;23.30;;;10.98;;
10126;SDS011;13080;42.608;23.362;2024-03-02T02:14:59;26.98;;;12.88;;
10126;SDS011;13080;42.608;23.362;2024-03-02T02:17:26;25.33;;;12.23;;
10126;SDS011;13080;42.608;23.362;2024-03-02T02:19:53;28.38;;;12.57;;
10126;SDS011;13080;42.608;23.362;2024-03-02T02:22:21;23.25;;;10.77;;
10126;SDS011;13080;42.608;23.362;2024-03-02T02:24:48;23.58;;;12.90;;
10126;SDS011;13080;42.608;23.362;2024-03-02T02:27:15;26.13;;;12.30;;
10126;SDS011;13080;42.608;23.362;2024-03-02T02:29:42;21.77;;;10.75;;
10126;SDS011;13080;42.608;23.362;2024-03-02T02:32:08;26.38;;;11.30;;
10126;SDS011;13080;42.608;23.362;2024-03-02T02:34:35;23.80;;;11.10;;
10126;SDS011;13080;42.608;23.362;2024-03-02T02:37:02;29.73;;;12.55;;
10126;SDS011;13080;42.608;23.362;2024-03-02T02:39:31;25.60;;;12.27;;
10126;SDS011;13080;42.608;23.362;2024-03-02T02:41:57;26.25;;;11.65;;
10126;SDS011;13080;42.608;23.362;2024-03-02T02:44:26;21.10;;;10.32;;
10126;SDS011;13080;42.608;23.362;2024-03-02T02:46:53;24.10;;;10.15;;
10126;SDS011;13080;42.608;23.362;2024-03-02T02:49:19;19.92;;;9.75;;
10126;SDS011;13080;42.608;23.362;2024-03-02T02:51:46;22.23;;;10.35;;
10126;SDS011;13080;42.608;23.362;2024-03-02T02:54:13;21.90;;;10.27;;
10126;SDS011;13080;42.608;23.362;2024-03-02T02:56:41;16.55;;;8.68;;
10126;SDS011;13080;42.608;23.362;2024-03-02T02:59:08;16.73;;;8.98;;
10126;SDS011;13080;42.608;23.362;2024-03-02T03:01:35;18.80;;;8.40;;
10126;SDS011;13080;42.608;23.362;2024-03-02T03:04:02;21.75;;;8.90;;
10126;SDS011;13080;42.608;23.362;2024-03-02T03:06:30;14.70;;;8.43;;
10126;SDS011;13080;42.608;23.362;2024-03-02T03:08:57;16.27;;;8.98;;
10126;SDS011;13080;42.608;23.362;2024-03-02T03:11:24;15.23;;;7.90;;
10126;SDS011;13080;42.608;23.362;2024-03-02T03:13:53;14.13;;;7.70;;
10126;SDS011;13080;42.608;23.362;2024-03-02T03:16:20;14.73;;;8.43;;
10126;SDS011;13080;42.608;23.362;2024-03-02T03:18:47;18.17;;;8.13;;
10126;SDS011;13080;42.608;23.362;2024-03-02T03:21:16;16.25;;;9.40;;
10126;SDS011;13080;42.608;23.362;2024-03-02T03:23:43;15.00;;;7.80;;
10126;SDS011;13080;42.608;23.362;2024-03-02T03:26:10;14.93;;;8.13;;
10126;SDS011;13080;42.608;23.362;2024-03-02T03:28:37;15.50;;;7.95;;
10126;SDS011;13080;42.608;23.362;2024-03-02T03:31:07;14.50;;;7.68;;
10126;SDS011;13080;42.608;23.362;2024-03-02T03:33:34;17.23;;;9.90;;
10126;SDS011;13080;42.608;23.362;2024-03-02T03:36:00;18.15;;;9.65;;
10126;SDS011;13080;42.608;23.362;2024-03-02T03:38:28;23.60;;;10.38;;
10126;SDS011;13080;42.608;23.362;2024-03-02T03:40:55;27.08;;;11.52;;
10126;SDS011;13080;42.608;23.362;2024-03-02T03:43:22;22.35;;;12.18;;
10126;SDS011;13080;42.608;23.362;2024-03-02T03:45:49;27.55;;;12.55;;
10126;SDS011;13080;42.608;23.362;2024-03-02T03:48:18;30.77;;;16.30;;
10126;SDS011;13080;42.608;23.362;2024-03-02T03:50:45;24.85;;;12.98;;
10126;SDS011;13080;42.608;23.362;2024-03-02T03:53:12;23.30;;;12.43;;
10126;SDS011;13080;42.608;23.362;2024-03-02T03:55:39;24.48;;;11.77;;
10126;SDS011;13080;42.608;23.362;2024-03-02T03:58:06;27.88;;;12.95;;
10126;SDS011;13080;42.608;23.362;2024-03-02T04:00:33;25.52;;;13.13;;
10126;SDS011;13080;42.608;23.362;2024-03-02T04:03:00;27.45;;;12.60;;
10126;SDS011;13080;42.608;23.362;2024-03-02T04:05:28;26.42;;;12.70;;
10126;SDS011;13080;42.608;23.362;2024-03-02T04:07:55;33.42;;;14.80;;
10126;SDS011;13080;42.608;23.362;2024-03-02T04:10:22;32.85;;;15.40;;
10126;SDS011;13080;42.608;23.362;2024-03-02T04:12:49;36.90;;;17.05;;
10126;SDS011;13080;42.608;23.362;2024-03-02T04:15:16;31.15;;;15.93;;
10126;SDS011;13080;42.608;23.362;2024-03-02T04:17:44;34.00;;;16.25;;
10126;SDS011;13080;42.608;23.362;2024-03-02T04:20:11;31.58;;;15.45;;
10126;SDS011;13080;42.608;23.362;2024-03-02T04:22:40;37.28;;;16.45;;
10126;SDS011;13080;42.608;23.362;2024-03-02T04:25:07;29.38;;;13.90;;
10126;SDS011;13080;42.608;23.362;2024-03-02T04:27:34;32.45;;;14.77;;
10126;SDS011;13080;42.608;23.362;2024-03-02T04:30:02;31.27;;;14.05;;
10126;SDS011;13080;42.608;23.362;2024-03-02T04:32:31;30.85;;;13.75;;
10126;SDS011;13080;42.608;23.362;2024-03-02T04:34:57;32.58;;;14.32;;
10126;SDS011;13080;42.608;23.362;2024-03-02T04:37:27;31.27;;;14.30;;
10126;SDS011;13080;42.608;23.362;2024-03-02T04:39:55;28.73;;;15.35;;
10126;SDS011;13080;42.608;23.362;2024-03-02T04:42:22;29.52;;;15.18;;
10126;SDS011;13080;42.608;23.362;2024-03-02T04:44:49;28.73;;;13.98;;
10126;SDS011;13080;42.608;23.362;2024-03-02T04:47:16;31.08;;;14.35;;
10126;SDS011;13080;42.608;23.362;2024-03-02T04:49:43;28.13;;;15.40;;
10126;SDS011;13080;42.608;23.362;2024-03-02T04:52:10;28.52;;;12.95;;
10126;SDS011;13080;42.608;23.362;2024-03-02T04:54:37;26.80;;;12.43;;
10126;SDS011;13080;42.608;23.362;2024-03-02T04:57:33;26.48;;;11.93;;
10126;SDS011;13080;42.608;23.362;2024-03-02T05:00:00;23.33;;;11.38;;
10126;SDS011;13080;42.608;23.362;2024-03-02T05:02:27;21.52;;;10.70;;
10126;SDS011;13080;42.608;23.362;2024-03-02T05:04:54;23.00;;;10.70;;
10126;SDS011;13080;42.608;23.362;2024-03-02T05:07:20;22.10;;;10.50;;
10126;SDS011;13080;42.608;23.362;2024-03-02T05:09:47;22.35;;;10.27;;
10126;SDS011;13080;42.608;23.362;2024-03-02T05:12:14;23.88;;;10.82;;
10126;SDS011;13080;42.608;23.362;2024-03-02T05:15:07;22.05;;;9.40;;
10126;SDS011;13080;42.608;23.362;2024-03-02T05:17:35;21.25;;;10.75;;
10126;SDS011;13080;42.608;23.362;2024-03-02T05:20:02;19.02;;;10.00;;
10126;SDS011;13080;42.608;23.362;2024-03-02T05:22:30;27.33;;;11.13;;
10126;SDS011;13080;42.608;23.362;2024-03-02T05:24:56;23.92;;;11.35;;
10126;SDS011;13080;42.608;23.362;2024-03-02T05:27:25;27.00;;;11.55;;
10126;SDS011;13080;42.608;23.362;2024-03-02T05:29:51;20.13;;;10.50;;
10126;SDS011;13080;42.608;23.362;2024-03-02T05:32:20;22.15;;;11.75;;
10126;SDS011;13080;42.608;23.362;2024-03-02T05:34:47;22.38;;;11.38;;
10126;SDS011;13080;42.608;23.362;2024-03-02T05:37:15;21.45;;;10.70;;
10126;SDS011;13080;42.608;23.362;2024-03-02T05:39:42;26.05;;;11.20;;
10126;SDS011;13080;42.608;23.362;2024-03-02T05:42:09;27.30;;;12.77;;
10126;SDS011;13080;42.608;23.362;2024-03-02T05:44:36;26.42;;;12.23;;
10126;SDS011;13080;42.608;23.362;2024-03-02T05:47:03;24.73;;;11.98;;
10126;SDS011;13080;42.608;23.362;2024-03-02T05:49:35;23.83;;;11.52;;
10126;SDS011;13080;42.608;23.362;2024-03-02T05:52:02;27.48;;;11.57;;
10126;SDS011;13080;42.608;23.362;2024-03-02T05:54:29;26.13;;;12.20;;
10126;SDS011;13080;42.608;23.362;2024-03-02T05:56:56;23.05;;;11.02;;
10126;SDS011;13080;42.608;23.362;2024-03-02T05:59:41;28.02;;;11.68;;
10126;SDS011;13080;42.608;23.362;2024-03-02T06:02:08;28.58;;;12.15;;
10126;SDS011;13080;42.608;23.362;2024-03-02T06:04:37;25.15;;;13.13;;
10126;SDS011;13080;42.608;23.362;2024-03-02T06:07:03;31.52;;;13.35;;
10126;SDS011;13080;42.608;23.362;2024-03-02T06:09:30;28.45;;;12.52;;
10126;SDS011;13080;42.608;23.362;2024-03-02T06:11:57;29.55;;;12.25;;
10126;SDS011;13080;42.608;23.362;2024-03-02T06:14:24;26.42;;;11.68;;
10126;SDS011;13080;42.608;23.362;2024-03-02T06:16:51;24.50;;;11.70;;
10126;SDS011;13080;42.608;23.362;2024-03-02T06:19:18;24.33;;;12.07;;
10126;SDS011;13080;42.608;23.362;2024-03-02T06:21:46;24.23;;;11.43;;
10126;SDS011;13080;42.608;23.362;2024-03-02T06:24:13;26.60;;;12.48;;
10126;SDS011;13080;42.608;23.362;2024-03-02T06:26:40;24.90;;;12.18;;
10126;SDS011;13080;42.608;23.362;2024-03-02T06:29:07;26.63;;;12.27;;
10126;SDS011;13080;42.608;23.362;2024-03-02T06:31:34;22.10;;;11.15;;
10126;SDS011;13080;42.608;23.362;2024-03-02T06:34:01;23.67;;;11.10;;
10126;SDS011;13080;42.608;23.362;2024-03-02T06:36:28;25.52;;;11.70;;
10126;SDS011;13080;42.608;23.362;2024-03-02T06:38:59;21.20;;;10.52;;
10126;SDS011;13080;42.608;23.362;2024-03-02T06:41:26;20.92;;;10.48;;
10126;SDS011;13080;42.608;23.362;2024-03-02T06:43:53;20.45;;;10.38;;
10126;SDS011;13080;42.608;23.362;2024-03-02T06:46:24;20.75;;;10.32;;
10126;SDS011;13080;42.608;23.362;2024-03-02T06:48:51;25.90;;;10.93;;
10126;SDS011;13080;42.608;23.362;2024-03-02T06:51:18;20.88;;;11.27;;
10126;SDS011;13080;42.608;23.362;2024-03-02T06:53:45;22.42;;;10.68;;
10126;SDS011;13080;42.608;23.362;2024-03-02T06:56:13;20.38;;;10.40;;
10126;SDS011;13080;42.608;23.362;2024-03-02T06:58:40;22.05;;;10.63;;
10126;SDS011;13080;42.608;23.362;2024-03-02T07:01:08;22.50;;;10.40;;
10126;SDS011;13080;42.608;23.362;2024-03-02T07:03:35;23.42;;;10.18;;
10126;SDS011;13080;42.608;23.362;2024-03-02T07:06:02;20.65;;;10.43;;
10126;SDS011;13080;42.608;23.362;2024-03-02T07:08:29;18.05;;;9.48;;
10126;SDS011;13080;42.608;23.362;2024-03-02T07:10:56;21.33;;;11.00;;
10126;SDS011;13080;42.608;23.362;2024-03-02T07:13:25;23.30;;;9.85;;
10126;SDS011;13080;42.608;23.362;2024-03-02T07:15:52;19.17;;;10.48;;
10126;SDS011;13080;42.608;23.362;2024-03-02T07:18:46;18.55;;;10.02;;
10126;SDS011;13080;42.608;23.362;2024-03-02T07:21:16;23.20;;;11.23;;
10126;SDS011;13080;42.608;23.362;2024-03-02T07:23:43;23.58;;;12.25;;
10126;SDS011;13080;42.608;23.362;2024-03-02T07:26:10;22.98;;;10.45;;
10126;SDS011;13080;42.608;23.362;2024-03-02T07:28:39;26.35;;;11.68;;
10126;SDS011;13080;42.608;23.362;2024-03-02T07:31:05;25.55;;;12.55;;
10126;SDS011;13080;42.608;23.362;2024-03-02T07:33:32;25.45;;;11.57;;
10126;SDS011;13080;42.608;23.362;2024-03-02T07:36:00;25.13;;;12.30;;
10126;SDS011;13080;42.608;23.362;2024-03-02T07:38:27;27.83;;;11.57;;
10126;SDS011;13080;42.608;23.362;2024-03-02T07:40:55;22.48;;;11.60;;
10126;SDS011;13080;42.608;23.362;2024-03-02T07:43:22;24.80;;;12.05;;
10126;SDS011;13080;42.608;23.362;2024-03-02T07:45:50;28.73;;;11.80;;
10126;SDS011;13080;42.608;23.362;2024-03-02T07:48:17;25.23;;;12.52;;
10126;SDS011;13080;42.608;23.362;2024-03-02T07:50:44;28.05;;;11.82;;
10126;SDS011;13080;42.608;23.362;2024-03-02T07:53:11;25.55;;;11.18;;
10126;SDS011;13080;42.608;23.362;2024-03-02T07:55:39;23.10;;;10.40;;
10126;SDS011;13080;42.608;23.362;2024-03-02T07:58:06;20.80;;;10.07;;
10126;SDS011;13080;42.608;23.362;2024-03-02T08:00:33;23.88;;;11.48;;
10126;SDS011;13080;42.608;23.362;2024-03-02T08:03:02;21.45;;;10.85;;
10126;SDS011;13080;42.608;23.362;2024-03-02T08:05:29;24.27;;;11.63;;
10126;SDS011;13080;42.608;23.362;2024-03-02T08:07:56;27.70;;;12.98;;
10126;SDS011;13080;42.608;23.362;2024-03-02T08:10:24;31.88;;;14.52;;
10126;SDS011;13080;42.608;23.362;2024-03-02T08:12:51;29.60;;;13.52;;
10126;SDS011;13080;42.608;23.362;2024-03-02T08:15:17;29.20;;;13.52;;
10126;SDS011;13080;42.608;23.362;2024-03-02T08:17:44;27.17;;;12.88;;
10126;SDS011;13080;42.608;23.362;2024-03-02T08:20:16;25.33;;;13.23;;
10126;SDS011;13080;42.608;23.362;2024-03-02T08:22:44;28.15;;;13.57;;
10126;SDS011;13080;42.608;23.362;2024-03-02T08:25:12;31.67;;;15.23;;
10126;SDS011;13080;42.608;23.362;2024-03-02T08:27:39;31.27;;;13.75;;
10126;SDS011;13080;42.608;23.362;2024-03-02T08:30:06;29.48;;;11.95;;
10126;SDS011;13080;42.608;23.362;2024-03-02T08:32:35;25.95;;;13.23;;
10126;SDS011;13080;42.608;23.362;2024-03-02T08:35:03;27.75;;;13.23;;
10126;SDS011;13080;42.608;23.362;2024-03-02T08:37:32;24.75;;;13.18;;
10126;SDS011;13080;42.608;23.362;2024-03-02T08:39:59;28.60;;;12.95;;
10126;SDS011;13080;42.608;23.362;2024-03-02T08:42:26;23.92;;;11.15;;
10126;SDS011;13080;42.608;23.362;2024-03-02T08:44:53;25.45;;;12.88;;
10126;SDS011;13080;42.608;23.362;2024-03-02T08:47:20;25.70;;;13.25;;
10126;SDS011;13080;42.608;23.362;2024-03-02T08:49:47;27.35;;;13.32;;
10126;SDS011;13080;42.608;23.362;2024-03-02T08:52:13;30.73;;;13.75;;
10126;SDS011;13080;42.608;23.362;2024-03-02T08:54:42;25.30;;;11.95;;
10126;SDS011;13080;42.608;23.362;2024-03-02T08:57:09;24.10;;;12.27;;
10126;SDS011;13080;42.608;23.362;2024-03-02T08:59:36;23.83;;;11.45;;
10126;SDS011;13080;42.608;23.362;2024-03-02T09:02:03;24.15;;;12.23;;
10126;SDS011;13080;42.608;23.362;2024-03-02T09:04:30;23.00;;;12.02;;
10126;SDS011;13080;42.608;23.362;2024-03-02T09:06:57;24.65;;;12.32;;
10126;SDS011;13080;42.608;23.362;2024-03-02T09:09:24;24.70;;;11.77;;
10126;SDS011;13080;42.608;23.362;2024-03-02T09:11:52;29.60;;;12.85;;
10126;SDS011;13080;42.608;23.362;2024-03-02T09:14:20;22.30;;;12.40;;
10126;SDS011;13080;42.608;23.362;2024-03-02T09:16:47;22.98;;;11.60;;
10126;SDS011;13080;42.608;23.362;2024-03-02T09:19:13;24.63;;;12.10;;
10126;SDS011;13080;42.608;23.362;2024-03-02T09:21:41;26.60;;;11.52;;
10126;SDS011;13080;42.608;23.362;2024-03-02T09:24:09;22.60;;;10.65;;
10126;SDS011;13080;42.608;23.362;2024-03-02T09:26:36;20.92;;;10.88;;
10126;SDS011;13080;42.608;23.362;2024-03-02T09:29:04;22.35;;;10.13;;
10126;SDS011;13080;42.608;23.362;2024-03-02T09:31:31;21.15;;;10.95;;
10126;SDS011;13080;42.608;23.362;2024-03-02T09:33:58;20.60;;;10.40;;
10126;SDS011;13080;42.608;23.362;2024-03-02T09:36:25;18.10;;;10.13;;
10126;SDS011;13080;42.608;23.362;2024-03-02T09:38:52;20.80;;;10.13;;
10126;SDS011;13080;42.608;23.362;2024-03-02T09:41:18;17.83;;;8.98;;
10126;SDS011;13080;42.608;23.362;2024-03-02T09:43:46;20.55;;;9.35;;
10126;SDS011;13080;42.608;23.362;2024-03-02T09:46:14;17.08;;;8.73;;
10126;SDS011;13080;42.608;23.362;2024-03-02T09:48:42;18.35;;;8.65;;
10126;SDS011;13080;42.608;23.362;2024-03-02T09:51:10;17.98;;;8.45;;
10126;SDS011;13080;42.608;23.362;2024-03-02T09:53:38;19.23;;;10.10;;
10126;SDS011;13080;42.608;23.362;2024-03-02T09:56:05;18.85;;;9.32;;
10126;SDS011;13080;42.608;23.362;2024-03-02T09:58:32;21.17;;;10.55;;
10126;SDS011;13080;42.608;23.362;2024-03-02T10:00:59;26.45;;;11.88;;
10126;SDS011;13080;42.608;23.362;2024-03-02T10:03:28;21.33;;;11.05;;
10126;SDS011;13080;42.608;23.362;2024-03-02T10:06:09;20.20;;;11.10;;
10126;SDS011;13080;42.608;23.362;2024-03-02T10:08:45;25.55;;;12.27;;
10126;SDS011;13080;42.608;23.362;2024-03-02T10:11:15;22.60;;;11.38;;
10126;SDS011;13080;42.608;23.362;2024-03-02T10:13:59;25.27;;;11.85;;
10126;SDS011;13080;42.608;23.362;2024-03-02T10:16:33;27.38;;;13.30;;
10126;SDS011;13080;42.608;23.362;2024-03-02T10:19:15;23.27;;;11.32;;
10126;SDS011;13080;42.608;23.362;2024-03-02T10:21:43;23.38;;;11.70;;
10126;SDS011;13080;42.608;23.362;2024-03-02T10:24:10;28.70;;;14.32;;
10126;SDS011;13080;42.608;23.362;2024-03-02T10:26:37;27.73;;;12.48;;
10126;SDS011;13080;42.608;23.362;2024-03-02T10:29:04;24.55;;;12.68;;
10126;SDS011;13080;42.608;23.362;2024-03-02T10:31:31;30.25;;;13.93;;
10126;SDS011;13080;42.608;23.362;2024-03-02T10:33:59;29.15;;;13.80;;
10126;SDS011;13080;42.608;23.362;2024-03-02T10:36:29;26.85;;;12.60;;
10126;SDS011;13080;42.608;23.362;2024-03-02T10:38:56;22.90;;;11.90;;
10126;SDS011;13080;42.608;23.362;2024-03-02T10:41:24;25.52;;;11.82;;
10126;SDS011;13080;42.608;23.362;2024-03-02T10:43:53;24.08;;;11.82;;
10126;SDS011;13080;42.608;23.362;2024-03-02T10:46:25;24.77;;;12.25;;
10126;SDS011;13080;42.608;23.362;2024-03-02T10:48:54;25.48;;;12.95;;
10126;SDS011;13080;42.608;23.362;2024-03-02T10:51:24;27.27;;;12.27;;
10126;SDS011;13080;42.608;23.362;2024-03-02T10:53:54;27.35;;;12.27;;
10126;SDS011;13080;42.608;23.362;2024-03-02T10:56:22;23.55;;;11.00;;
10126;SDS011;13080;42.608;23.362;2024-03-02T10:58:55;28.90;;;12.63;;
10126;SDS011;13080;42.608;23.362;2024-03-02T11:01:29;25.00;;;11.90;;
10126;SDS011;13080;42.608;23.362;2024-03-02T11:03:58;23.83;;;11.65;;
10126;SDS011;13080;42.608;23.362;2024-03-02T11:06:27;18.88;;;10.32;;
10126;SDS011;13080;42.608;23.362;2024-03-02T11:08:59;24.83;;;11.38;;
10126;SDS011;13080;42.608;23.362;2024-03-02T11:11:32;24.63;;;11.00;;
10126;SDS011;13080;42.608;23.362;2024-03-02T11:14:02;20.75;;;10.65;;
10126;SDS011;13080;42.608;23.362;2024-03-02T11:16:35;25.73;;;11.05;;
10126;SDS011;13080;42.608;23.362;2024-03-02T11:19:04;23.17;;;12.25;;
10126;SDS011;13080;42.608;23.362;2024-03-02T11:21:33;30.15;;;11.88;;
10126;SDS011;13080;42.608;23.362;2024-03-02T11:24:02;25.05;;;12.32;;
10126;SDS011;13080;42.608;23.362;2024-03-02T11:26:58;24.48;;;10.95;;
10126;SDS011;13080;42.608;23.362;2024-03-02T11:29:43;22.17;;;10.70;;
10126;SDS011;13080;42.608;23.362;2024-03-02T11:32:15;19.48;;;10.13;;
10126;SDS011;13080;42.608;23.362;2024-03-02T11:34:44;23.27;;;10.07;;
10126;SDS011;13080;42.608;23.362;2024-03-02T11:37:13;23.30;;;9.38;;
10126;SDS011;13080;42.608;23.362;2024-03-02T11:39:43;22.95;;;10.02;;
10126;SDS011;13080;42.608;23.362;2024-03-02T11:42:13;21.35;;;10.43;;
10126;SDS011;13080;42.608;23.362;2024-03-02T11:44:42;23.13;;;10.63;;
10126;SDS011;13080;42.608;23.362;2024-03-02T11:47:11;23.40;;;10.73;;
10126;SDS011;13080;42.608;23.362;2024-03-02T11:49:43;23.00;;;11.18;;
10126;SDS011;13080;42.608;23.362;2024-03-02T11:52:12;19.73;;;10.18;;
10126;SDS011;13080;42.608;23.362;2024-03-02T11:54:41;22.40;;;11.75;;
10126;SDS011;13080;42.608;23.362;2024-03-02T11:57:13;23.70;;;10.73;;
10126;SDS011;13080;42.608;23.362;2024-03-02T11:59:41;22.25;;;11.82;;
10126;SDS011;13080;42.608;23.362;2024-03-02T12:02:14;22.42;;;10.98;;
10126;SDS011;13080;42.608;23.362;2024-03-02T12:04:42;21.92;;;10.68;;
10126;SDS011;13080;42.608;23.362;2024-03-02T12:07:10;21.13;;;10.45;;
10126;SDS011;13080;42.608;23.362;2024-03-02T12:09:37;21.95;;;11.52;;
10126;SDS011;13080;42.608;23.362;2024-03-02T12:12:06;19.80;;;10.52;;
10126;SDS011;13080;42.608;23.362;2024-03-02T12:14:34;22.85;;;11.55;;
10126;SDS011;13080;42.608;23.362;2024-03-02T12:17:03;21.23;;;11.02;;
10126;SDS011;13080;42.608;23.362;2024-03-02T12:19:30;24.55;;;11.35;;
10126;SDS011;13080;42.608;23.362;2024-03-02T12:21:58;25.10;;;11.88;;
10126;SDS011;13080;42.608;23.362;2024-03-02T12:24:26;21.23;;;11.75;;
10126;SDS011;13080;42.608;23.362;2024-03-02T12:26:55;22.45;;;10.93;;
10126;SDS011;13080;42.608;23.362;2024-03-02T12:29:24;22.30;;;10.70;;
10126;SDS011;13080;42.608;23.362;2024-03-02T12:31:51;21.02;;;10.73;;
10126;SDS011;13080;42.608;23.362;2024-03-02T12:34:19;20.63;;;10.10;;
10126;SDS011;13080;42.608;23.362;2024-03-02T12:36:48;20.80;;;10.13;;
10126;SDS011;13080;42.608;23.362;2024-03-02T12:39:18;22.10;;;11.48;;
10126;SDS011;13080;42.608;23.362;2024-03-02T12:41:45;20.65;;;10.45;;
10126;SDS011;13080;42.608;23.362;2024-03-02T12:44:15;18.65;;;10.60;;
10126;SDS011;13080;42.608;23.362;2024-03-02T12:46:44;22.33;;;11.57;;
10126;SDS011;13080;42.608;23.362;2024-03-02T12:49:12;24.17;;;10.68;;
10126;SDS011;13080;42.608;23.362;2024-03-02T12:51:41;20.20;;;11.80;;
10126;SDS011;13080;42.608;23.362;2024-03-02T12:54:09;19.95;;;10.13;;
10126;SDS011;13080;42.608;23.362;2024-03-02T12:56:36;18.10;;;9.52;;
10126;SDS011;13080;42.608;23.362;2024-03-02T12:59:04;17.30;;;9.57;;
10126;SDS011;13080;42.608;23.362;2024-03-02T13:01:31;19.27;;;9.68;;
10126;SDS011;13080;42.608;23.362;2024-03-02T13:03:59;22.27;;;11.10;;
10126;SDS011;13080;42.608;23.362;2024-03-02T13:06:26;22.08;;;11.38;;
10126;SDS011;13080;42.608;23.362;2024-03-02T13:08:54;24.25;;;12.65;;
10126;SDS011;13080;42.608;23.362;2024-03-02T13:11:21;23.67;;;13.18;;
10126;SDS011;13080;42.608;23.362;2024-03-02T13:13:49;23.65;;;12.85;;
10126;SDS011;13080;42.608;23.362;2024-03-02T13:16:17;23.55;;;12.77;;
10126;SDS011;13080;42.608;23.362;2024-03-02T13:18:45;23.33;;;11.95;;
10126;SDS011;13080;42.608;23.362;2024-03-02T13:21:13;22.60;;;11.27;;
10126;SDS011;13080;42.608;23.362;2024-03-02T13:23:40;22.50;;;11.23;;
10126;SDS011;13080;42.608;23.362;2024-03-02T13:26:07;22.75;;;12.35;;
10126;SDS011;13080;42.608;23.362;2024-03-02T13:28:36;21.08;;;12.02;;
10126;SDS011;13080;42.608;23.362;2024-03-02T13:31:04;23.55;;;13.35;;
10126;SDS011;13080;42.608;23.362;2024-03-02T13:33:31;25.42;;;10.90;;
10126;SDS011;13080;42.608;23.362;2024-03-02T13:35:58;24.58;;;11.70;;
10126;SDS011;13080;42.608;23.362;2024-03-02T13:38:28;20.05;;;10.73;;
10126;SDS011;13080;42.608;23.362;2024-03-02T13:40:55;18.45;;;10.23;;
10126;SDS011;13080;42.608;23.362;2024-03-02T13:43:22;19.15;;;10.35;;
10126;SDS011;13080;42.608;23.362;2024-03-02T13:45:49;24.75;;;12.10;;
10126;SDS011;13080;42.608;23.362;2024-03-02T13:48:17;21.75;;;11.13;;
10126;SDS011;13080;42.608;23.362;2024-03-02T13:50:44;21.88;;;12.25;;
10126;SDS011;13080;42.608;23.362;2024-03-02T13:53:11;22.95;;;12.07;;
10126;SDS011;13080;42.608;23.362;2024-03-02T13:55:40;20.45;;;10.98;;
10126;SDS011;13080;42.608;23.362;2024-03-02T13:58:08;22.33;;;11.13;;
10126;SDS011;13080;42.608;23.362;2024-03-02T14:00:35;26.23;;;12.27;;
10126;SDS011;13080;42.608;23.362;2024-03-02T14:03:03;23.45;;;10.70;;
10126;SDS011;13080;42.608;23.362;2024-03-02T14:05:32;23.08;;;12.20;;
10126;SDS011;13080;42.608;23.362;2024-03-02T14:07:59;26.05;;;11.50;;
10126;SDS011;13080;42.608;23.362;2024-03-02T14:10:26;26.08;;;12.77;;
10126;SDS011;13080;42.608;23.362;2024-03-02T14:12:55;23.50;;;12.10;;
10126;SDS011;13080;42.608;23.362;2024-03-02T14:15:22;27.25;;;12.88;;
10126;SDS011;13080;42.608;23.362;2024-03-02T14:17:49;24.17;;;11.02;;